createdAt,value
2019-03-10T00:02:06.148Z,8.28
2019-03-10T00:04:35.579Z,5.97
2019-03-10T00:07:05.094Z,8.43
2019-03-10T00:09:34.554Z,7.17
2019-03-10T00:12:04.702Z,8.65
2019-03-10T00:14:34.306Z,11.97
2019-03-10T00:17:04.425Z,8.88
2019-03-10T00:19:36.669Z,10.30
2019-03-10T00:22:06.377Z,12.30
2019-03-10T00:24:35.861Z,11.68
2019-03-10T00:27:05.491Z,10.40
2019-03-10T00:29:35.127Z,8.98
2019-03-10T00:32:04.682Z,8.05
2019-03-10T00:34:34.169Z,9.50
2019-03-10T00:37:04.488Z,9.68
2019-03-10T00:39:45.715Z,8.78
2019-03-10T00:42:33.488Z,11.75
2019-03-10T00:45:24.169Z,11.38
2019-03-10T00:48:28.505Z,8.70
2019-03-10T00:51:23.604Z,8.53
2019-03-10T00:53:53.029Z,13.75
2019-03-10T00:56:23.585Z,11.03
2019-03-10T00:58:53.116Z,9.50
2019-03-10T01:01:22.546Z,10.45
2019-03-10T01:03:52.036Z,6.53
2019-03-10T01:06:21.813Z,9.28
2019-03-10T01:08:51.334Z,13.30
2019-03-10T01:11:20.817Z,8.93
2019-03-10T01:13:50.407Z,9.10
2019-03-10T01:16:20.002Z,10.23
2019-03-10T01:18:50.254Z,10.38
2019-03-10T01:21:20.427Z,11.88
2019-03-10T01:23:49.913Z,8.85
2019-03-10T01:26:19.359Z,9.37
2019-03-10T01:28:48.818Z,6.78
2019-03-10T01:31:27.266Z,10.95
2019-03-10T01:34:15.941Z,10.90
2019-03-10T01:36:45.443Z,11.53
2019-03-10T01:39:15.066Z,7.35
2019-03-10T01:41:44.560Z,10.00
2019-03-10T01:44:14.042Z,10.45
2019-03-10T01:46:43.478Z,9.03
2019-03-10T01:49:12.967Z,11.47
2019-03-10T01:51:43.460Z,12.78
2019-03-10T01:54:13.020Z,14.73
2019-03-10T01:56:42.473Z,12.80
2019-03-10T01:59:11.960Z,14.18
2019-03-10T02:01:41.434Z,11.47
2019-03-10T02:04:10.913Z,11.73
2019-03-10T02:06:40.638Z,11.75
2019-03-10T02:09:11.209Z,12.70
2019-03-10T02:11:40.728Z,10.45
2019-03-10T02:14:10.218Z,13.60
2019-03-10T02:16:39.661Z,13.65
2019-03-10T02:19:09.157Z,15.34
2019-03-10T02:21:38.733Z,13.28
2019-03-10T02:24:08.204Z,8.85
2019-03-10T02:26:37.696Z,14.20
2019-03-10T02:29:07.129Z,11.75
2019-03-10T02:31:36.585Z,13.72
2019-03-10T02:34:06.071Z,11.63
2019-03-10T02:36:35.497Z,12.73
2019-03-10T02:39:06.588Z,14.35
2019-03-10T02:41:36.108Z,10.15
2019-03-10T02:44:05.581Z,12.75
2019-03-10T02:46:35.033Z,11.63
2019-03-10T02:49:04.623Z,11.30
2019-03-10T02:51:34.061Z,11.65
2019-03-10T02:54:04.547Z,9.54
2019-03-10T02:56:34.111Z,13.43
2019-03-10T02:59:04.455Z,11.73
2019-03-10T03:01:33.892Z,9.90
2019-03-10T03:04:03.413Z,8.78
2019-03-10T03:06:32.850Z,10.10
2019-03-10T03:09:02.342Z,14.40
2019-03-10T03:11:33.379Z,11.80
2019-03-10T03:14:02.849Z,13.20
2019-03-10T03:16:32.287Z,15.72
2019-03-10T03:19:01.760Z,16.47
2019-03-10T03:21:42.268Z,14.60
2019-03-10T03:24:03.719Z,13.53
2019-03-10T03:26:33.224Z,12.40
2019-03-10T03:29:02.742Z,15.65
2019-03-10T03:31:32.178Z,14.15
2019-03-10T03:34:01.833Z,14.55
2019-03-10T03:36:33.499Z,11.53
2019-03-10T03:39:15.244Z,12.23
2019-03-10T03:41:44.725Z,12.18
2019-03-10T03:44:14.156Z,12.40
2019-03-10T03:46:43.617Z,11.18
2019-03-10T03:49:13.152Z,13.30
2019-03-10T03:51:43.604Z,13.15
2019-03-10T03:54:13.132Z,14.45
2019-03-10T03:56:42.640Z,13.25
2019-03-10T03:59:12.188Z,12.98
2019-03-10T04:01:52.127Z,11.90
2019-03-10T04:04:21.720Z,13.55
2019-03-10T04:06:51.163Z,9.43
2019-03-10T04:09:21.094Z,11.10
2019-03-10T04:11:50.525Z,13.95
2019-03-10T04:14:20.071Z,11.57
2019-03-10T04:16:49.509Z,9.25
2019-03-10T04:19:18.962Z,9.53
2019-03-10T04:21:48.397Z,10.93
2019-03-10T04:24:17.869Z,10.78
2019-03-10T04:26:47.335Z,10.75
2019-03-10T04:29:17.202Z,12.43
2019-03-10T04:31:46.634Z,10.43
2019-03-10T04:34:16.100Z,11.75
2019-03-10T04:36:45.540Z,9.60
2019-03-10T04:39:14.997Z,14.95
2019-03-10T04:41:44.431Z,10.50
2019-03-10T04:44:13.904Z,12.63
2019-03-10T04:46:43.360Z,8.28
2019-03-10T04:49:12.832Z,8.23
2019-03-10T04:51:42.272Z,9.90
2019-03-10T04:54:11.743Z,11.33
2019-03-10T04:56:42.825Z,10.00
2019-03-10T04:59:12.313Z,11.80
2019-03-10T05:01:41.771Z,8.68
2019-03-10T05:04:11.257Z,9.93
2019-03-10T05:06:40.752Z,7.97
2019-03-10T05:09:10.826Z,10.43
2019-03-10T05:11:40.378Z,9.23
2019-03-10T05:14:09.843Z,10.08
2019-03-10T05:16:39.276Z,11.65
2019-03-10T05:19:08.742Z,7.42
2019-03-10T05:21:38.222Z,10.40
2019-03-10T05:24:09.472Z,12.50
2019-03-10T05:26:38.944Z,13.35
2019-03-10T05:29:08.549Z,16.50
2019-03-10T05:31:38.044Z,12.13
2019-03-10T05:34:07.460Z,11.80
2019-03-10T05:36:36.935Z,12.05
2019-03-10T05:39:07.187Z,12.80
2019-03-10T05:41:36.661Z,10.68
2019-03-10T05:44:06.171Z,10.05
2019-03-10T05:46:35.772Z,13.58
2019-03-10T05:49:05.216Z,11.73
2019-03-10T05:51:34.688Z,11.28
2019-03-10T05:54:05.248Z,18.30
2019-03-10T05:56:34.721Z,12.70
2019-03-10T05:59:04.391Z,10.23
2019-03-10T06:01:33.867Z,16.07
2019-03-10T06:04:03.281Z,12.55
2019-03-10T06:06:32.768Z,13.60
2019-03-10T06:09:02.370Z,12.55
2019-03-10T06:11:33.617Z,12.95
2019-03-10T06:14:03.168Z,14.87
2019-03-10T06:16:32.634Z,12.95
2019-03-10T06:19:02.094Z,15.50
2019-03-10T06:21:32.037Z,14.83
2019-03-10T06:24:01.610Z,13.60
2019-03-10T06:26:31.116Z,17.42
2019-03-10T06:29:01.525Z,13.83
2019-03-10T06:31:31.024Z,17.82
2019-03-10T06:34:00.457Z,13.53
2019-03-10T06:36:29.918Z,13.13
2019-03-10T06:38:59.387Z,15.18
2019-03-10T06:41:28.865Z,16.35
2019-03-10T06:43:58.299Z,16.57
2019-03-10T06:46:27.776Z,14.43
2019-03-10T06:48:57.444Z,16.23
2019-03-10T06:51:26.920Z,12.88
2019-03-10T06:53:57.345Z,14.93
2019-03-10T06:56:26.826Z,14.07
2019-03-10T06:58:56.291Z,11.88
2019-03-10T07:01:25.734Z,15.72
2019-03-10T07:03:55.166Z,14.07
2019-03-10T07:06:24.733Z,12.58
2019-03-10T07:08:54.165Z,19.25
2019-03-10T07:11:23.605Z,11.48
2019-03-10T07:13:53.080Z,15.98
2019-03-10T07:16:23.521Z,12.93
2019-03-10T07:18:52.979Z,11.85
2019-03-10T07:21:22.723Z,11.05
2019-03-10T07:23:52.193Z,12.90
2019-03-10T07:26:21.736Z,9.63
2019-03-10T07:29:04.643Z,12.65
2019-03-10T07:31:44.934Z,8.48
2019-03-10T07:34:34.382Z,9.53
2019-03-10T07:37:15.209Z,8.10
2019-03-10T07:39:46.450Z,10.35
2019-03-10T07:42:17.551Z,7.87
2019-03-10T07:44:48.609Z,6.12
2019-03-10T07:47:25.229Z,8.15
2019-03-10T07:50:12.683Z,6.53
2019-03-10T07:52:46.682Z,5.15
2019-03-10T07:55:17.741Z,7.00
2019-03-10T07:57:54.568Z,4.30
2019-03-10T08:00:28.570Z,6.28
2019-03-10T08:03:05.657Z,4.55
2019-03-10T08:05:39.489Z,5.67
2019-03-10T08:08:28.524Z,5.05
2019-03-10T08:11:02.241Z,5.60
2019-03-10T08:13:33.753Z,8.03
2019-03-10T08:16:13.634Z,6.12
2019-03-10T08:18:44.757Z,5.55
2019-03-10T08:21:28.110Z,7.60
2019-03-10T08:23:59.251Z,5.65
2019-03-10T08:26:45.485Z,5.17
2019-03-10T08:29:22.587Z,7.05
2019-03-10T08:32:05.495Z,5.72
2019-03-10T08:34:39.251Z,5.97
2019-03-10T08:37:28.675Z,4.76
2019-03-10T08:40:17.701Z,7.55
2019-03-10T08:42:49.735Z,4.08
2019-03-10T08:45:20.991Z,8.45
2019-03-10T08:47:58.953Z,6.17
2019-03-10T08:50:30.021Z,7.03
2019-03-10T08:53:01.135Z,6.33
2019-03-10T08:55:47.313Z,5.80
2019-03-10T08:58:24.551Z,4.25
2019-03-10T09:01:13.903Z,3.58
2019-03-10T09:03:45.253Z,6.78
2019-03-10T09:06:22.185Z,7.50
2019-03-10T09:08:59.138Z,6.08
2019-03-10T09:11:45.624Z,5.58
2019-03-10T09:14:16.944Z,5.58
2019-03-10T09:16:48.176Z,6.92
2019-03-10T09:19:19.328Z,4.40
2019-03-10T09:22:00.349Z,4.28
2019-03-10T09:24:43.639Z,7.10
2019-03-10T09:27:14.774Z,5.62
2019-03-10T09:30:02.493Z,5.65
2019-03-10T09:32:38.696Z,6.20
2019-03-10T09:35:12.613Z,10.45
2019-03-10T09:37:52.707Z,4.50
2019-03-10T09:40:24.403Z,4.25
2019-03-10T09:42:55.586Z,5.28
2019-03-10T09:45:29.538Z,4.92
2019-03-10T09:48:00.740Z,4.12
2019-03-10T09:50:34.500Z,5.58
2019-03-10T09:53:15.523Z,6.97
2019-03-10T09:55:55.420Z,4.78
2019-03-10T09:58:35.683Z,7.00
2019-03-10T10:01:24.899Z,6.17
2019-03-10T10:03:57.206Z,7.12
2019-03-10T10:06:28.365Z,6.12
2019-03-10T10:09:00.007Z,3.42
2019-03-10T10:11:31.077Z,4.62
2019-03-10T10:14:07.810Z,5.45
2019-03-10T10:16:51.011Z,4.93
2019-03-10T10:19:37.234Z,3.85
2019-03-10T10:22:17.382Z,5.95
2019-03-10T10:24:48.988Z,4.40
2019-03-10T10:27:25.826Z,3.67
2019-03-10T10:30:02.534Z,4.27
2019-03-10T10:32:43.480Z,4.42
2019-03-10T10:35:14.847Z,2.77
2019-03-10T10:37:49.413Z,2.20
2019-03-10T10:40:20.658Z,4.03
2019-03-10T10:43:04.974Z,4.72
2019-03-10T10:45:54.786Z,4.90
2019-03-10T10:48:26.483Z,6.17
2019-03-10T10:51:03.545Z,4.25
2019-03-10T10:53:34.786Z,5.20
2019-03-10T10:56:22.519Z,3.20
2019-03-10T10:58:54.714Z,5.62
2019-03-10T11:01:32.066Z,4.37
2019-03-10T11:04:15.487Z,4.30
2019-03-10T11:06:58.429Z,3.92
2019-03-10T11:09:32.144Z,2.60
2019-03-10T11:12:03.352Z,2.60
2019-03-10T11:14:34.553Z,4.33
2019-03-10T11:17:12.286Z,4.00
2019-03-10T11:19:43.511Z,3.45
2019-03-10T11:22:32.594Z,3.67
2019-03-10T11:25:06.719Z,3.08
2019-03-10T11:27:37.775Z,3.75
2019-03-10T11:30:21.412Z,3.65
2019-03-10T11:32:55.676Z,4.28
2019-03-10T11:35:26.888Z,2.52
2019-03-10T11:38:16.002Z,4.87
2019-03-10T11:40:56.401Z,4.85
2019-03-10T11:43:33.411Z,5.12
2019-03-10T11:46:22.201Z,4.05
2019-03-10T11:48:59.262Z,3.60
2019-03-10T11:51:30.528Z,3.75
2019-03-10T11:54:01.883Z,4.30
2019-03-10T11:56:42.394Z,2.53
2019-03-10T11:59:13.571Z,4.55
2019-03-10T12:01:48.051Z,2.98
2019-03-10T12:07:40.480Z,2.67
2019-03-10T12:10:11.830Z,4.03
2019-03-10T12:12:52.295Z,4.15
2019-03-10T12:15:33.016Z,4.50
2019-03-10T12:18:02.535Z,3.85
2019-03-10T12:20:32.154Z,4.22
2019-03-10T12:23:01.579Z,1.75
2019-03-10T12:25:32.180Z,2.75
2019-03-10T12:28:01.597Z,3.12
2019-03-10T12:30:31.230Z,2.05
2019-03-10T12:33:00.721Z,2.98
2019-03-10T12:35:34.743Z,2.60
2019-03-10T12:38:03.720Z,2.62
2019-03-10T12:40:40.400Z,2.53
2019-03-10T12:43:09.846Z,2.15
2019-03-10T12:45:39.610Z,2.83
2019-03-10T12:48:09.230Z,3.08
2019-03-10T12:50:38.799Z,2.67
2019-03-10T12:53:08.222Z,3.00
2019-03-10T12:55:37.834Z,3.05
2019-03-10T12:58:07.261Z,2.15
2019-03-10T13:00:36.839Z,1.80
2019-03-10T13:03:06.367Z,2.03
2019-03-10T13:05:35.821Z,2.77
2019-03-10T13:08:05.371Z,2.10
2019-03-10T13:10:34.858Z,3.40
2019-03-10T13:13:04.343Z,2.22
2019-03-10T13:15:34.143Z,2.17
2019-03-10T13:18:03.561Z,2.52
2019-03-10T13:20:34.104Z,4.28
2019-03-10T13:23:04.627Z,2.50
2019-03-10T13:25:34.272Z,4.80
2019-03-10T13:28:04.334Z,2.92
2019-03-10T13:30:33.891Z,8.80
2019-03-10T13:33:04.445Z,2.75
2019-03-10T13:35:34.083Z,3.87
2019-03-10T13:38:04.410Z,1.62
2019-03-10T13:40:34.100Z,2.72
2019-03-10T13:43:07.178Z,2.95
2019-03-10T13:45:36.805Z,2.90
2019-03-10T13:48:06.377Z,2.95
2019-03-10T13:50:35.863Z,3.58
2019-03-10T13:53:05.709Z,2.72
2019-03-10T13:55:35.318Z,6.58
2019-03-10T13:58:04.891Z,2.45
2019-03-10T14:00:34.469Z,3.37
2019-03-10T14:03:04.451Z,2.27
2019-03-10T14:05:34.335Z,2.87
2019-03-10T14:08:04.661Z,2.20
2019-03-10T14:10:34.209Z,3.50
2019-03-10T14:13:04.637Z,3.50
2019-03-10T14:15:34.227Z,1.70
2019-03-10T14:18:04.810Z,2.27
2019-03-10T14:20:34.442Z,2.00
2019-03-10T14:23:04.489Z,1.65
2019-03-10T14:25:33.940Z,3.55
2019-03-10T14:28:04.866Z,2.90
2019-03-10T14:30:34.519Z,2.40
2019-03-10T14:33:06.379Z,2.24
2019-03-10T14:35:35.876Z,4.30
2019-03-10T14:38:05.578Z,2.70
2019-03-10T14:40:35.301Z,2.83
2019-03-10T14:43:06.612Z,2.87
2019-03-10T14:45:36.075Z,2.47
2019-03-10T14:48:05.786Z,3.17
2019-03-10T14:50:35.402Z,3.33
2019-03-10T14:53:05.209Z,2.72
2019-03-10T14:55:34.667Z,2.90
2019-03-10T14:58:04.584Z,2.42
2019-03-10T15:00:34.091Z,2.80
2019-03-10T15:03:10.368Z,2.75
2019-03-10T15:05:40.057Z,4.22
2019-03-10T15:08:09.852Z,2.30
2019-03-10T15:10:39.566Z,2.98
2019-03-10T15:13:22.035Z,3.30
2019-03-10T15:15:51.551Z,3.15
2019-03-10T15:18:21.867Z,5.95
2019-03-10T15:20:51.470Z,3.05
2019-03-10T15:23:21.340Z,4.10
2019-03-10T15:25:50.932Z,4.15
2019-03-10T15:28:20.548Z,4.33
2019-03-10T15:30:50.599Z,5.62
2019-03-10T15:33:20.582Z,4.75
2019-03-10T15:35:50.240Z,3.10
2019-03-10T15:38:19.877Z,5.78
2019-03-10T15:40:51.097Z,3.90
2019-03-10T15:43:20.765Z,10.58
2019-03-10T15:45:50.337Z,4.22
2019-03-10T15:48:20.091Z,3.85
2019-03-10T15:50:49.766Z,2.70
2019-03-10T15:53:19.305Z,3.90
2019-03-10T15:55:48.778Z,3.27
2019-03-10T15:58:18.728Z,3.20
2019-03-10T16:00:48.715Z,3.55
2019-03-10T16:03:18.351Z,4.67
2019-03-10T16:05:47.949Z,4.55
2019-03-10T16:08:17.577Z,3.80
2019-03-10T16:10:47.182Z,4.55
2019-03-10T16:13:16.839Z,10.13
2019-03-10T16:15:46.282Z,3.67
2019-03-10T16:18:15.873Z,9.20
2019-03-10T16:20:45.372Z,5.08
2019-03-10T16:23:14.982Z,5.47
2019-03-10T16:25:44.486Z,5.08
2019-03-10T16:28:14.083Z,6.40
2019-03-10T16:30:44.047Z,6.40
2019-03-10T16:33:13.711Z,6.28
2019-03-10T16:35:43.281Z,6.42
2019-03-10T16:38:12.852Z,6.60
2019-03-10T16:40:42.369Z,9.08
2019-03-10T16:43:11.968Z,9.43
2019-03-10T16:45:41.538Z,10.03
2019-03-10T16:48:11.135Z,8.08
2019-03-10T16:50:40.795Z,10.30
2019-03-10T16:53:10.436Z,10.03
2019-03-10T16:55:40.103Z,9.85
2019-03-10T16:58:09.729Z,7.35
2019-03-10T17:00:39.357Z,7.58
2019-03-10T17:03:09.251Z,6.45
2019-03-10T17:05:39.152Z,4.20
2019-03-10T17:08:08.828Z,4.00
2019-03-10T17:10:38.457Z,4.40
2019-03-10T17:13:08.099Z,5.85
2019-03-10T17:15:37.658Z,7.65
2019-03-10T17:18:07.742Z,3.67
2019-03-10T17:20:38.348Z,4.17
2019-03-10T17:23:07.917Z,3.12
2019-03-10T17:25:37.350Z,3.20
2019-03-10T17:28:06.860Z,3.37
2019-03-10T17:30:36.446Z,2.45
2019-03-10T17:33:05.937Z,2.62
2019-03-10T17:35:35.592Z,3.70
2019-03-10T17:38:05.179Z,4.55
2019-03-10T17:40:34.877Z,7.42
2019-03-10T17:43:04.539Z,6.28
2019-03-10T17:45:33.985Z,5.65
2019-03-10T17:48:04.807Z,5.62
2019-03-10T17:50:34.682Z,5.40
2019-03-10T17:53:07.251Z,4.67
2019-03-10T17:55:35.791Z,5.35
2019-03-10T17:58:05.525Z,5.10
2019-03-10T18:00:36.122Z,3.35
2019-03-10T18:03:05.904Z,3.08
2019-03-10T18:05:35.458Z,3.20
2019-03-10T18:08:05.033Z,2.90
2019-03-10T18:10:34.634Z,3.20
2019-03-10T18:13:04.911Z,2.87
2019-03-10T18:15:34.444Z,4.05
2019-03-10T18:18:04.621Z,3.83
2019-03-10T18:20:34.052Z,3.50
2019-03-10T18:23:04.468Z,4.53
2019-03-10T18:25:33.900Z,4.12
2019-03-10T18:28:06.189Z,5.00
2019-03-10T18:30:35.713Z,5.65
2019-03-10T18:33:07.441Z,6.95
2019-03-10T18:35:37.189Z,6.35
2019-03-10T18:38:06.712Z,4.67
2019-03-10T18:40:36.341Z,4.00
2019-03-10T18:43:06.078Z,4.15
2019-03-10T18:45:35.760Z,3.95
2019-03-10T18:48:05.580Z,4.30
2019-03-10T18:50:36.039Z,3.90
2019-03-10T18:53:05.612Z,3.62
2019-03-10T18:55:35.781Z,4.05
2019-03-10T18:58:05.943Z,4.15
2019-03-10T19:00:35.796Z,3.47
2019-03-10T19:03:06.314Z,3.08
2019-03-10T19:05:36.228Z,5.22
2019-03-10T19:08:05.793Z,3.10
2019-03-10T19:10:35.403Z,4.03
2019-03-10T19:13:05.124Z,3.60
2019-03-10T19:15:34.821Z,4.90
2019-03-10T19:18:05.328Z,4.53
2019-03-10T19:20:34.898Z,4.58
2019-03-10T19:23:04.481Z,5.83
2019-03-10T19:25:34.110Z,7.53
2019-03-10T19:28:04.386Z,7.78
2019-03-10T19:30:34.386Z,5.00
2019-03-10T19:33:05.321Z,5.80
2019-03-10T19:35:36.565Z,4.67
2019-03-10T19:38:06.223Z,4.83
2019-03-10T19:40:36.028Z,4.08
2019-03-10T19:43:05.767Z,4.17
2019-03-10T19:45:37.091Z,5.65
2019-03-10T19:48:08.979Z,5.25
2019-03-10T19:50:39.939Z,5.83
2019-03-10T19:53:10.798Z,6.78
2019-03-10T19:55:40.979Z,9.03
2019-03-10T19:58:10.500Z,6.20
2019-03-10T20:00:40.213Z,8.20
2019-03-10T20:03:10.007Z,9.80
2019-03-10T20:05:39.445Z,6.78
2019-03-10T20:08:09.213Z,7.85
2019-03-10T20:10:39.970Z,8.63
2019-03-10T20:13:09.425Z,9.88
2019-03-10T20:15:39.395Z,10.58
2019-03-10T20:18:08.898Z,13.44
2019-03-10T20:20:38.992Z,10.28
2019-03-10T20:23:08.661Z,9.78
2019-03-10T20:25:38.299Z,9.48
2019-03-10T20:28:09.331Z,9.83
2019-03-10T20:30:39.228Z,9.08
2019-03-10T20:33:09.165Z,9.38
2019-03-10T20:35:38.823Z,9.33
2019-03-10T20:38:08.249Z,8.67
2019-03-10T20:40:37.821Z,10.58
2019-03-10T20:43:11.229Z,9.80
2019-03-10T20:45:40.983Z,9.88
2019-03-10T20:48:11.290Z,11.55
2019-03-10T20:50:40.919Z,9.18
2019-03-10T20:53:12.008Z,11.43
2019-03-10T20:55:42.280Z,8.43
2019-03-10T20:58:12.424Z,8.70
2019-03-10T21:00:42.409Z,8.98
2019-03-10T21:03:13.108Z,9.93
2019-03-10T21:05:42.852Z,8.93
2019-03-10T21:08:14.294Z,8.65
2019-03-10T21:10:44.021Z,9.20
2019-03-10T21:13:14.652Z,8.43
2019-03-10T21:15:44.977Z,6.83
2019-03-10T21:18:15.049Z,7.03
2019-03-10T21:20:45.281Z,6.70
2019-03-10T21:23:15.166Z,6.75
2019-03-10T21:25:44.977Z,6.05
2019-03-10T21:28:15.332Z,6.43
2019-03-10T21:30:45.354Z,5.37
2019-03-10T21:33:15.333Z,5.47
2019-03-10T21:35:45.389Z,5.60
2019-03-10T21:38:15.863Z,7.15
2019-03-10T21:40:45.857Z,7.50
2019-03-10T21:43:15.829Z,5.12
2019-03-10T21:45:46.300Z,5.17
2019-03-10T21:48:16.680Z,5.35
2019-03-10T21:50:46.652Z,4.62
2019-03-10T21:53:16.580Z,6.53
2019-03-10T21:55:46.301Z,5.65
2019-03-10T21:58:15.873Z,5.30
2019-03-10T22:00:45.323Z,5.12
2019-03-10T22:03:14.992Z,5.07
2019-03-10T22:05:44.441Z,4.50
2019-03-10T22:08:13.930Z,4.90
2019-03-10T22:10:43.520Z,5.10
2019-03-10T22:13:13.189Z,4.42
2019-03-10T22:15:42.818Z,4.47
2019-03-10T22:18:12.243Z,4.53
2019-03-10T22:20:41.723Z,5.47
2019-03-10T22:23:11.194Z,4.58
2019-03-10T22:25:40.783Z,4.80
2019-03-10T22:28:11.183Z,5.25
2019-03-10T22:30:40.814Z,3.60
2019-03-10T22:33:10.249Z,2.83
2019-03-10T22:35:40.827Z,3.70
2019-03-10T22:38:10.302Z,2.17
2019-03-10T22:40:39.939Z,3.45
2019-03-10T22:43:09.554Z,2.27
2019-03-10T22:45:39.033Z,2.00
2019-03-10T22:48:08.485Z,2.25
2019-03-10T22:50:38.036Z,2.15
2019-03-10T22:53:07.510Z,1.25
2019-03-10T22:55:38.569Z,1.37
2019-03-10T22:58:08.054Z,2.00
2019-03-10T23:00:51.198Z,1.27
2019-03-10T23:03:20.921Z,1.57
2019-03-10T23:05:50.480Z,0.97
2019-03-10T23:08:19.999Z,0.90
2019-03-10T23:10:49.563Z,0.57
2019-03-10T23:13:18.997Z,0.30
2019-03-10T23:15:48.577Z,0.57
2019-03-10T23:18:18.061Z,0.50
2019-03-10T23:20:48.574Z,0.60
2019-03-10T23:23:18.202Z,0.82
2019-03-10T23:25:47.822Z,1.20
2019-03-10T23:28:17.425Z,1.80
2019-03-10T23:30:46.979Z,1.40
2019-03-10T23:33:16.554Z,2.27
2019-03-10T23:35:46.056Z,1.90
2019-03-10T23:38:15.548Z,2.12
2019-03-10T23:40:46.109Z,2.98
2019-03-10T23:43:17.236Z,3.05
2019-03-10T23:45:46.659Z,2.62
2019-03-10T23:48:16.135Z,2.30
2019-03-10T23:50:45.603Z,2.92
2019-03-10T23:53:15.084Z,3.40
2019-03-10T23:55:44.529Z,3.67
2019-03-10T23:58:13.998Z,3.70
